sensor_id;sensor_type;location;lat;lon;timestamp;P1;durP1;ratioP1;P2;durP2;ratioP2
52354;SDS011;38286;51.156;17.038;2023-05-07T00:01:58;7.20;;;4.95;;
52354;SDS011;38286;51.156;17.038;2023-05-07T00:04:24;6.75;;;4.50;;
52354;SDS011;38286;51.156;17.038;2023-05-07T00:06:50;5.57;;;4.65;;
52354;SDS011;38286;51.156;17.038;2023-05-07T00:09:16;7.35;;;4.78;;
52354;SDS011;38286;51.156;17.038;2023-05-07T00:11:42;5.97;;;4.95;;
52354;SDS011;38286;51.156;17.038;2023-05-07T00:14:08;6.47;;;4.70;;
52354;SDS011;38286;51.156;17.038;2023-05-07T00:16:34;7.00;;;5.22;;
52354;SDS011;38286;51.156;17.038;2023-05-07T00:19:00;5.90;;;4.57;;
52354;SDS011;38286;51.156;17.038;2023-05-07T00:21:26;7.70;;;5.25;;
52354;SDS011;38286;51.156;17.038;2023-05-07T00:23:55;6.47;;;4.82;;
52354;SDS011;38286;51.156;17.038;2023-05-07T00:26:21;6.93;;;5.15;;
52354;SDS011;38286;51.156;17.038;2023-05-07T00:28:47;6.22;;;4.72;;
52354;SDS011;38286;51.156;17.038;2023-05-07T00:31:13;6.97;;;4.75;;
52354;SDS011;38286;51.156;17.038;2023-05-07T00:33:39;6.15;;;4.80;;
52354;SDS011;38286;51.156;17.038;2023-05-07T00:36:05;7.88;;;4.63;;
52354;SDS011;38286;51.156;17.038;2023-05-07T00:38:31;5.57;;;4.65;;
52354;SDS011;38286;51.156;17.038;2023-05-07T00:40:58;8.10;;;4.68;;
52354;SDS011;38286;51.156;17.038;2023-05-07T00:43:23;5.63;;;4.18;;
52354;SDS011;38286;51.156;17.038;2023-05-07T00:45:50;7.43;;;5.28;;
52354;SDS011;38286;51.156;17.038;2023-05-07T00:48:15;5.50;;;4.63;;
52354;SDS011;38286;51.156;17.038;2023-05-07T00:50:42;5.53;;;4.72;;
52354;SDS011;38286;51.156;17.038;2023-05-07T00:53:08;5.05;;;4.47;;
52354;SDS011;38286;51.156;17.038;2023-05-07T00:55:34;7.07;;;4.70;;
52354;SDS011;38286;51.156;17.038;2023-05-07T00:58:01;7.25;;;5.10;;
52354;SDS011;38286;51.156;17.038;2023-05-07T01:00:27;5.70;;;5.10;;
52354;SDS011;38286;51.156;17.038;2023-05-07T01:02:53;7.40;;;5.20;;
52354;SDS011;38286;51.156;17.038;2023-05-07T01:05:19;7.28;;;5.63;;
52354;SDS011;38286;51.156;17.038;2023-05-07T01:07:46;8.25;;;5.53;;
52354;SDS011;38286;51.156;17.038;2023-05-07T01:10:13;7.90;;;5.72;;
52354;SDS011;38286;51.156;17.038;2023-05-07T01:12:39;8.07;;;5.53;;
52354;SDS011;38286;51.156;17.038;2023-05-07T01:15:06;10.20;;;5.50;;
52354;SDS011;38286;51.156;17.038;2023-05-07T01:17:36;7.55;;;5.47;;
52354;SDS011;38286;51.156;17.038;2023-05-07T01:20:05;7.82;;;5.72;;
52354;SDS011;38286;51.156;17.038;2023-05-07T01:22:32;7.57;;;5.70;;
52354;SDS011;38286;51.156;17.038;2023-05-07T01:25:00;8.88;;;6.35;;
52354;SDS011;38286;51.156;17.038;2023-05-07T01:27:27;11.32;;;6.05;;
52354;SDS011;38286;51.156;17.038;2023-05-07T01:29:53;9.50;;;6.07;;
52354;SDS011;38286;51.156;17.038;2023-05-07T01:32:21;9.30;;;6.43;;
52354;SDS011;38286;51.156;17.038;2023-05-07T01:34:55;8.73;;;5.75;;
52354;SDS011;38286;51.156;17.038;2023-05-07T01:37:21;10.70;;;6.30;;
52354;SDS011;38286;51.156;17.038;2023-05-07T01:39:48;8.23;;;6.10;;
52354;SDS011;38286;51.156;17.038;2023-05-07T01:42:15;10.52;;;6.25;;
52354;SDS011;38286;51.156;17.038;2023-05-07T01:44:41;8.05;;;5.85;;
52354;SDS011;38286;51.156;17.038;2023-05-07T01:47:07;7.07;;;5.40;;
52354;SDS011;38286;51.156;17.038;2023-05-07T01:49:34;8.93;;;6.38;;
52354;SDS011;38286;51.156;17.038;2023-05-07T01:52:00;8.73;;;6.32;;
52354;SDS011;38286;51.156;17.038;2023-05-07T01:54:27;9.18;;;5.85;;
52354;SDS011;38286;51.156;17.038;2023-05-07T01:56:53;8.48;;;5.30;;
52354;SDS011;38286;51.156;17.038;2023-05-07T01:59:21;9.85;;;6.95;;
52354;SDS011;38286;51.156;17.038;2023-05-07T02:01:47;8.57;;;6.25;;
52354;SDS011;38286;51.156;17.038;2023-05-07T02:04:13;8.95;;;5.25;;
52354;SDS011;38286;51.156;17.038;2023-05-07T02:06:39;7.72;;;5.15;;
52354;SDS011;38286;51.156;17.038;2023-05-07T02:09:05;7.32;;;5.20;;
52354;SDS011;38286;51.156;17.038;2023-05-07T02:11:31;7.60;;;5.68;;
52354;SDS011;38286;51.156;17.038;2023-05-07T02:13:57;8.02;;;5.57;;
52354;SDS011;38286;51.156;17.038;2023-05-07T02:16:23;10.88;;;6.07;;
52354;SDS011;38286;51.156;17.038;2023-05-07T02:18:49;9.65;;;5.95;;
52354;SDS011;38286;51.156;17.038;2023-05-07T02:21:15;9.05;;;6.38;;
52354;SDS011;38286;51.156;17.038;2023-05-07T02:23:41;7.55;;;5.82;;
52354;SDS011;38286;51.156;17.038;2023-05-07T02:26:07;8.70;;;5.68;;
52354;SDS011;38286;51.156;17.038;2023-05-07T02:28:33;11.15;;;6.00;;
52354;SDS011;38286;51.156;17.038;2023-05-07T02:31:03;10.05;;;6.38;;
52354;SDS011;38286;51.156;17.038;2023-05-07T02:33:29;10.45;;;7.50;;
52354;SDS011;38286;51.156;17.038;2023-05-07T02:35:56;9.20;;;6.63;;
52354;SDS011;38286;51.156;17.038;2023-05-07T02:38:22;11.80;;;7.35;;
52354;SDS011;38286;51.156;17.038;2023-05-07T02:40:48;10.23;;;7.30;;
52354;SDS011;38286;51.156;17.038;2023-05-07T02:43:14;9.38;;;6.68;;
52354;SDS011;38286;51.156;17.038;2023-05-07T02:45:40;9.80;;;6.32;;
52354;SDS011;38286;51.156;17.038;2023-05-07T02:48:06;9.63;;;6.63;;
52354;SDS011;38286;51.156;17.038;2023-05-07T02:50:32;10.82;;;6.40;;
52354;SDS011;38286;51.156;17.038;2023-05-07T02:52:58;10.32;;;5.82;;
52354;SDS011;38286;51.156;17.038;2023-05-07T02:55:24;11.05;;;6.45;;
52354;SDS011;38286;51.156;17.038;2023-05-07T02:57:51;8.35;;;5.90;;
52354;SDS011;38286;51.156;17.038;2023-05-07T03:00:17;9.38;;;5.93;;
52354;SDS011;38286;51.156;17.038;2023-05-07T03:02:44;10.52;;;6.28;;
52354;SDS011;38286;51.156;17.038;2023-05-07T03:05:10;7.47;;;5.18;;
52354;SDS011;38286;51.156;17.038;2023-05-07T03:07:37;8.57;;;5.57;;
52354;SDS011;38286;51.156;17.038;2023-05-07T03:10:03;7.10;;;5.47;;
52354;SDS011;38286;51.156;17.038;2023-05-07T03:12:30;9.23;;;6.15;;
52354;SDS011;38286;51.156;17.038;2023-05-07T03:14:56;8.68;;;5.88;;
52354;SDS011;38286;51.156;17.038;2023-05-07T03:17:22;8.88;;;6.07;;
52354;SDS011;38286;51.156;17.038;2023-05-07T03:19:48;8.02;;;5.85;;
52354;SDS011;38286;51.156;17.038;2023-05-07T03:22:14;9.30;;;6.22;;
52354;SDS011;38286;51.156;17.038;2023-05-07T03:24:40;10.23;;;5.28;;
52354;SDS011;38286;51.156;17.038;2023-05-07T03:27:06;10.23;;;6.22;;
52354;SDS011;38286;51.156;17.038;2023-05-07T03:29:32;7.25;;;5.45;;
52354;SDS011;38286;51.156;17.038;2023-05-07T03:31:58;9.10;;;5.78;;
52354;SDS011;38286;51.156;17.038;2023-05-07T03:34:24;8.27;;;5.78;;
52354;SDS011;38286;51.156;17.038;2023-05-07T03:36:50;9.20;;;5.70;;
52354;SDS011;38286;51.156;17.038;2023-05-07T03:39:16;10.00;;;6.00;;
52354;SDS011;38286;51.156;17.038;2023-05-07T03:41:42;8.40;;;5.82;;
52354;SDS011;38286;51.156;17.038;2023-05-07T03:44:08;7.97;;;5.43;;
52354;SDS011;38286;51.156;17.038;2023-05-07T03:46:34;6.03;;;4.70;;
52354;SDS011;38286;51.156;17.038;2023-05-07T03:49:00;6.15;;;4.20;;
52354;SDS011;38286;51.156;17.038;2023-05-07T03:51:26;7.03;;;4.00;;
52354;SDS011;38286;51.156;17.038;2023-05-07T03:53:52;6.07;;;4.22;;
52354;SDS011;38286;51.156;17.038;2023-05-07T03:56:18;7.25;;;4.05;;
52354;SDS011;38286;51.156;17.038;2023-05-07T03:58:45;7.32;;;4.57;;
52354;SDS011;38286;51.156;17.038;2023-05-07T04:01:11;15.07;;;7.20;;
52354;SDS011;38286;51.156;17.038;2023-05-07T04:03:37;11.80;;;7.80;;
52354;SDS011;38286;51.156;17.038;2023-05-07T04:06:03;11.82;;;8.80;;
52354;SDS011;38286;51.156;17.038;2023-05-07T04:08:29;11.52;;;8.85;;
52354;SDS011;38286;51.156;17.038;2023-05-07T04:10:55;13.32;;;8.98;;
52354;SDS011;38286;51.156;17.038;2023-05-07T04:13:22;12.38;;;8.95;;
52354;SDS011;38286;51.156;17.038;2023-05-07T04:15:48;14.55;;;9.50;;
52354;SDS011;38286;51.156;17.038;2023-05-07T04:18:14;12.57;;;8.50;;
52354;SDS011;38286;51.156;17.038;2023-05-07T04:20:41;13.13;;;9.18;;
52354;SDS011;38286;51.156;17.038;2023-05-07T04:23:07;12.05;;;8.20;;
52354;SDS011;38286;51.156;17.038;2023-05-07T04:25:33;13.15;;;9.07;;
52354;SDS011;38286;51.156;17.038;2023-05-07T04:27:59;10.95;;;8.30;;
52354;SDS011;38286;51.156;17.038;2023-05-07T04:30:25;12.02;;;8.57;;
52354;SDS011;38286;51.156;17.038;2023-05-07T04:32:52;9.75;;;8.30;;
52354;SDS011;38286;51.156;17.038;2023-05-07T04:35:18;11.75;;;8.60;;
52354;SDS011;38286;51.156;17.038;2023-05-07T04:37:44;10.23;;;7.50;;
52354;SDS011;38286;51.156;17.038;2023-05-07T04:40:11;13.13;;;8.30;;
52354;SDS011;38286;51.156;17.038;2023-05-07T04:42:36;11.77;;;8.05;;
52354;SDS011;38286;51.156;17.038;2023-05-07T04:45:03;10.00;;;7.30;;
52354;SDS011;38286;51.156;17.038;2023-05-07T04:47:30;8.35;;;7.03;;
52354;SDS011;38286;51.156;17.038;2023-05-07T04:49:57;8.38;;;6.40;;
52354;SDS011;38286;51.156;17.038;2023-05-07T04:52:23;8.30;;;6.22;;
52354;SDS011;38286;51.156;17.038;2023-05-07T04:54:49;7.53;;;6.18;;
52354;SDS011;38286;51.156;17.038;2023-05-07T04:57:15;7.68;;;5.60;;
52354;SDS011;38286;51.156;17.038;2023-05-07T04:59:43;7.20;;;5.75;;
52354;SDS011;38286;51.156;17.038;2023-05-07T05:02:10;8.13;;;5.13;;
52354;SDS011;38286;51.156;17.038;2023-05-07T05:04:36;6.88;;;5.07;;
52354;SDS011;38286;51.156;17.038;2023-05-07T05:07:02;6.75;;;5.60;;
52354;SDS011;38286;51.156;17.038;2023-05-07T05:09:31;7.85;;;5.88;;
52354;SDS011;38286;51.156;17.038;2023-05-07T05:11:57;7.43;;;5.85;;
52354;SDS011;38286;51.156;17.038;2023-05-07T05:14:23;7.00;;;5.78;;
52354;SDS011;38286;51.156;17.038;2023-05-07T05:16:49;8.32;;;5.95;;
52354;SDS011;38286;51.156;17.038;2023-05-07T05:19:15;7.22;;;5.78;;
52354;SDS011;38286;51.156;17.038;2023-05-07T05:21:41;6.97;;;5.50;;
52354;SDS011;38286;51.156;17.038;2023-05-07T05:24:07;6.38;;;5.68;;
52354;SDS011;38286;51.156;17.038;2023-05-07T05:26:33;6.90;;;5.00;;
52354;SDS011;38286;51.156;17.038;2023-05-07T05:29:00;9.73;;;5.88;;
52354;SDS011;38286;51.156;17.038;2023-05-07T05:31:26;8.00;;;6.25;;
52354;SDS011;38286;51.156;17.038;2023-05-07T05:33:52;6.95;;;5.38;;
52354;SDS011;38286;51.156;17.038;2023-05-07T05:36:17;7.70;;;5.97;;
52354;SDS011;38286;51.156;17.038;2023-05-07T05:38:44;8.43;;;6.07;;
52354;SDS011;38286;51.156;17.038;2023-05-07T05:41:09;8.07;;;5.70;;
52354;SDS011;38286;51.156;17.038;2023-05-07T05:43:36;7.18;;;5.10;;
52354;SDS011;38286;51.156;17.038;2023-05-07T05:46:02;7.57;;;4.93;;
52354;SDS011;38286;51.156;17.038;2023-05-07T05:48:29;9.20;;;5.15;;
52354;SDS011;38286;51.156;17.038;2023-05-07T05:50:55;6.50;;;4.95;;
52354;SDS011;38286;51.156;17.038;2023-05-07T05:53:22;6.47;;;5.03;;
52354;SDS011;38286;51.156;17.038;2023-05-07T05:55:47;8.85;;;4.97;;
52354;SDS011;38286;51.156;17.038;2023-05-07T05:58:14;8.05;;;5.00;;
52354;SDS011;38286;51.156;17.038;2023-05-07T06:00:40;6.53;;;5.25;;
52354;SDS011;38286;51.156;17.038;2023-05-07T06:03:06;5.28;;;4.78;;
52354;SDS011;38286;51.156;17.038;2023-05-07T06:05:32;8.13;;;5.30;;
52354;SDS011;38286;51.156;17.038;2023-05-07T06:07:58;6.47;;;5.38;;
52354;SDS011;38286;51.156;17.038;2023-05-07T06:10:24;6.20;;;4.88;;
52354;SDS011;38286;51.156;17.038;2023-05-07T06:12:51;5.65;;;4.90;;
52354;SDS011;38286;51.156;17.038;2023-05-07T06:15:17;6.38;;;4.70;;
52354;SDS011;38286;51.156;17.038;2023-05-07T06:17:43;6.38;;;5.07;;
52354;SDS011;38286;51.156;17.038;2023-05-07T06:20:09;7.80;;;5.00;;
52354;SDS011;38286;51.156;17.038;2023-05-07T06:22:36;5.68;;;4.60;;
52354;SDS011;38286;51.156;17.038;2023-05-07T06:25:02;7.22;;;5.20;;
52354;SDS011;38286;51.156;17.038;2023-05-07T06:27:28;6.80;;;4.78;;
52354;SDS011;38286;51.156;17.038;2023-05-07T06:29:54;6.93;;;4.28;;
52354;SDS011;38286;51.156;17.038;2023-05-07T06:32:20;6.03;;;4.40;;
52354;SDS011;38286;51.156;17.038;2023-05-07T06:34:46;5.40;;;4.50;;
52354;SDS011;38286;51.156;17.038;2023-05-07T06:37:12;6.82;;;4.72;;
52354;SDS011;38286;51.156;17.038;2023-05-07T06:39:38;7.43;;;5.15;;
52354;SDS011;38286;51.156;17.038;2023-05-07T06:42:04;8.25;;;5.20;;
52354;SDS011;38286;51.156;17.038;2023-05-07T06:44:30;6.85;;;5.38;;
52354;SDS011;38286;51.156;17.038;2023-05-07T06:46:56;6.32;;;5.07;;
52354;SDS011;38286;51.156;17.038;2023-05-07T06:49:22;6.75;;;4.43;;
52354;SDS011;38286;51.156;17.038;2023-05-07T06:51:48;6.18;;;3.83;;
52354;SDS011;38286;51.156;17.038;2023-05-07T06:54:14;4.25;;;3.35;;
52354;SDS011;38286;51.156;17.038;2023-05-07T06:56:41;4.75;;;3.40;;
52354;SDS011;38286;51.156;17.038;2023-05-07T06:59:07;5.03;;;3.47;;
52354;SDS011;38286;51.156;17.038;2023-05-07T07:01:33;4.03;;;3.53;;
52354;SDS011;38286;51.156;17.038;2023-05-07T07:03:59;6.05;;;3.83;;
52354;SDS011;38286;51.156;17.038;2023-05-07T07:06:26;3.88;;;3.10;;
52354;SDS011;38286;51.156;17.038;2023-05-07T07:08:52;4.45;;;3.35;;
52354;SDS011;38286;51.156;17.038;2023-05-07T07:11:18;4.57;;;3.05;;
52354;SDS011;38286;51.156;17.038;2023-05-07T07:13:44;4.68;;;3.17;;
52354;SDS011;38286;51.156;17.038;2023-05-07T07:16:10;2.95;;;2.60;;
52354;SDS011;38286;51.156;17.038;2023-05-07T07:18:36;5.88;;;3.13;;
52354;SDS011;38286;51.156;17.038;2023-05-07T07:21:02;3.40;;;2.80;;
52354;SDS011;38286;51.156;17.038;2023-05-07T07:23:28;3.88;;;2.90;;
52354;SDS011;38286;51.156;17.038;2023-05-07T07:26:13;3.67;;;2.90;;
52354;SDS011;38286;51.156;17.038;2023-05-07T07:28:44;5.82;;;3.50;;
52354;SDS011;38286;51.156;17.038;2023-05-07T07:31:10;3.80;;;3.30;;
52354;SDS011;38286;51.156;17.038;2023-05-07T07:33:37;6.45;;;3.75;;
52354;SDS011;38286;51.156;17.038;2023-05-07T07:36:03;4.53;;;3.53;;
52354;SDS011;38286;51.156;17.038;2023-05-07T07:38:30;4.32;;;3.83;;
52354;SDS011;38286;51.156;17.038;2023-05-07T07:40:56;4.68;;;3.72;;
52354;SDS011;38286;51.156;17.038;2023-05-07T07:43:22;4.53;;;3.75;;
52354;SDS011;38286;51.156;17.038;2023-05-07T07:45:48;5.32;;;3.95;;
52354;SDS011;38286;51.156;17.038;2023-05-07T07:48:14;6.07;;;4.57;;
52354;SDS011;38286;51.156;17.038;2023-05-07T07:50:40;5.57;;;4.55;;
52354;SDS011;38286;51.156;17.038;2023-05-07T07:53:06;5.57;;;4.50;;
52354;SDS011;38286;51.156;17.038;2023-05-07T07:55:32;6.60;;;4.90;;
52354;SDS011;38286;51.156;17.038;2023-05-07T07:57:58;5.97;;;4.75;;
52354;SDS011;38286;51.156;17.038;2023-05-07T08:00:24;5.57;;;4.45;;
52354;SDS011;38286;51.156;17.038;2023-05-07T08:02:50;5.40;;;4.60;;
52354;SDS011;38286;51.156;17.038;2023-05-07T08:05:16;5.68;;;4.57;;
52354;SDS011;38286;51.156;17.038;2023-05-07T08:07:42;6.30;;;4.60;;
52354;SDS011;38286;51.156;17.038;2023-05-07T08:10:08;5.55;;;4.63;;
52354;SDS011;38286;51.156;17.038;2023-05-07T08:12:35;7.85;;;5.50;;
52354;SDS011;38286;51.156;17.038;2023-05-07T08:15:00;5.35;;;4.82;;
52354;SDS011;38286;51.156;17.038;2023-05-07T08:17:27;6.82;;;5.22;;
52354;SDS011;38286;51.156;17.038;2023-05-07T08:19:52;5.65;;;4.78;;
52354;SDS011;38286;51.156;17.038;2023-05-07T08:22:19;8.20;;;5.85;;
52354;SDS011;38286;51.156;17.038;2023-05-07T08:24:44;7.68;;;5.15;;
52354;SDS011;38286;51.156;17.038;2023-05-07T08:27:11;7.88;;;5.75;;
52354;SDS011;38286;51.156;17.038;2023-05-07T08:29:37;8.13;;;5.35;;
52354;SDS011;38286;51.156;17.038;2023-05-07T08:32:03;6.25;;;4.97;;
52354;SDS011;38286;51.156;17.038;2023-05-07T08:34:29;8.27;;;6.03;;
52354;SDS011;38286;51.156;17.038;2023-05-07T08:36:55;7.82;;;5.85;;
52354;SDS011;38286;51.156;17.038;2023-05-07T08:39:21;7.55;;;5.78;;
52354;SDS011;38286;51.156;17.038;2023-05-07T08:41:47;9.63;;;5.90;;
52354;SDS011;38286;51.156;17.038;2023-05-07T08:44:14;7.13;;;5.30;;
52354;SDS011;38286;51.156;17.038;2023-05-07T08:46:41;8.88;;;6.00;;
52354;SDS011;38286;51.156;17.038;2023-05-07T08:49:07;8.73;;;6.55;;
52354;SDS011;38286;51.156;17.038;2023-05-07T08:51:34;11.02;;;6.78;;
52354;SDS011;38286;51.156;17.038;2023-05-07T08:54:01;9.32;;;6.35;;
52354;SDS011;38286;51.156;17.038;2023-05-07T08:56:27;8.25;;;6.30;;
52354;SDS011;38286;51.156;17.038;2023-05-07T08:58:53;8.30;;;6.35;;
52354;SDS011;38286;51.156;17.038;2023-05-07T09:01:22;8.10;;;5.95;;
52354;SDS011;38286;51.156;17.038;2023-05-07T09:03:49;9.15;;;6.25;;
52354;SDS011;38286;51.156;17.038;2023-05-07T09:06:15;7.85;;;5.93;;
52354;SDS011;38286;51.156;17.038;2023-05-07T09:08:48;8.75;;;6.00;;
52354;SDS011;38286;51.156;17.038;2023-05-07T09:11:21;8.65;;;5.78;;
52354;SDS011;38286;51.156;17.038;2023-05-07T09:13:54;8.02;;;5.50;;
52354;SDS011;38286;51.156;17.038;2023-05-07T09:16:27;7.95;;;5.05;;
52354;SDS011;38286;51.156;17.038;2023-05-07T09:18:56;6.97;;;4.85;;
52354;SDS011;38286;51.156;17.038;2023-05-07T09:21:24;6.88;;;5.07;;
52354;SDS011;38286;51.156;17.038;2023-05-07T09:23:50;5.53;;;4.70;;
52354;SDS011;38286;51.156;17.038;2023-05-07T09:26:17;7.05;;;5.00;;
52354;SDS011;38286;51.156;17.038;2023-05-07T09:28:43;7.35;;;5.10;;
52354;SDS011;38286;51.156;17.038;2023-05-07T09:31:10;7.63;;;5.18;;
52354;SDS011;38286;51.156;17.038;2023-05-07T09:33:37;10.80;;;6.38;;
52354;SDS011;38286;51.156;17.038;2023-05-07T09:36:04;9.00;;;5.97;;
52354;SDS011;38286;51.156;17.038;2023-05-07T09:38:31;10.30;;;6.25;;
52354;SDS011;38286;51.156;17.038;2023-05-07T09:41:02;8.40;;;6.03;;
52354;SDS011;38286;51.156;17.038;2023-05-07T09:43:31;9.23;;;6.30;;
52354;SDS011;38286;51.156;17.038;2023-05-07T09:45:59;9.77;;;6.45;;
52354;SDS011;38286;51.156;17.038;2023-05-07T09:48:31;8.88;;;6.35;;
52354;SDS011;38286;51.156;17.038;2023-05-07T09:50:58;7.75;;;6.13;;
52354;SDS011;38286;51.156;17.038;2023-05-07T09:53:28;10.00;;;5.82;;
52354;SDS011;38286;51.156;17.038;2023-05-07T09:55:55;7.70;;;6.07;;
52354;SDS011;38286;51.156;17.038;2023-05-07T09:58:22;8.38;;;5.80;;
52354;SDS011;38286;51.156;17.038;2023-05-07T10:00:49;6.28;;;4.45;;
52354;SDS011;38286;51.156;17.038;2023-05-07T10:03:15;5.18;;;4.32;;
52354;SDS011;38286;51.156;17.038;2023-05-07T10:05:42;5.35;;;4.40;;
52354;SDS011;38286;51.156;17.038;2023-05-07T10:08:09;7.40;;;4.47;;
52354;SDS011;38286;51.156;17.038;2023-05-07T10:10:36;4.63;;;3.80;;
52354;SDS011;38286;51.156;17.038;2023-05-07T10:13:02;4.57;;;3.80;;
52354;SDS011;38286;51.156;17.038;2023-05-07T10:15:31;5.38;;;4.20;;
52354;SDS011;38286;51.156;17.038;2023-05-07T10:17:57;3.67;;;3.28;;
52354;SDS011;38286;51.156;17.038;2023-05-07T10:20:23;4.40;;;3.70;;
52354;SDS011;38286;51.156;17.038;2023-05-07T10:22:49;5.68;;;3.80;;
52354;SDS011;38286;51.156;17.038;2023-05-07T10:25:18;4.72;;;3.75;;
52354;SDS011;38286;51.156;17.038;2023-05-07T10:27:47;3.80;;;3.50;;
52354;SDS011;38286;51.156;17.038;2023-05-07T10:30:17;6.68;;;4.20;;
52354;SDS011;38286;51.156;17.038;2023-05-07T10:32:51;5.10;;;3.58;;
52354;SDS011;38286;51.156;17.038;2023-05-07T10:35:21;4.32;;;3.42;;
52354;SDS011;38286;51.156;17.038;2023-05-07T10:37:50;4.35;;;3.30;;
52354;SDS011;38286;51.156;17.038;2023-05-07T10:40:16;4.85;;;3.50;;
52354;SDS011;38286;51.156;17.038;2023-05-07T10:42:58;4.43;;;3.38;;
52354;SDS011;38286;51.156;17.038;2023-05-07T10:45:26;3.78;;;3.25;;
52354;SDS011;38286;51.156;17.038;2023-05-07T10:50:34;5.00;;;3.83;;
52354;SDS011;38286;51.156;17.038;2023-05-07T10:56:23;5.38;;;3.92;;
52354;SDS011;38286;51.156;17.038;2023-05-07T10:58:43;4.88;;;3.53;;
52354;SDS011;38286;51.156;17.038;2023-05-07T11:01:10;6.07;;;3.95;;
52354;SDS011;38286;51.156;17.038;2023-05-07T11:04:12;4.78;;;3.70;;
52354;SDS011;38286;51.156;17.038;2023-05-07T11:06:40;4.22;;;3.55;;
52354;SDS011;38286;51.156;17.038;2023-05-07T11:09:06;5.25;;;3.60;;
52354;SDS011;38286;51.156;17.038;2023-05-07T11:11:45;6.07;;;3.80;;
52354;SDS011;38286;51.156;17.038;2023-05-07T11:14:13;4.72;;;3.75;;
52354;SDS011;38286;51.156;17.038;2023-05-07T11:16:41;5.18;;;3.80;;
52354;SDS011;38286;51.156;17.038;2023-05-07T11:19:07;4.78;;;3.50;;
52354;SDS011;38286;51.156;17.038;2023-05-07T11:24:00;5.38;;;3.53;;
52354;SDS011;38286;51.156;17.038;2023-05-07T11:26:27;4.75;;;3.78;;
52354;SDS011;38286;51.156;17.038;2023-05-07T11:28:54;6.70;;;3.58;;
52354;SDS011;38286;51.156;17.038;2023-05-07T11:31:24;5.93;;;3.30;;
52354;SDS011;38286;51.156;17.038;2023-05-07T11:33:52;4.25;;;3.47;;
52354;SDS011;38286;51.156;17.038;2023-05-07T11:36:22;5.00;;;3.70;;
52354;SDS011;38286;51.156;17.038;2023-05-07T11:38:48;3.80;;;3.00;;
52354;SDS011;38286;51.156;17.038;2023-05-07T11:41:15;3.60;;;3.28;;
52354;SDS011;38286;51.156;17.038;2023-05-07T11:43:55;4.57;;;3.10;;
52354;SDS011;38286;51.156;17.038;2023-05-07T11:46:22;4.22;;;3.35;;
52354;SDS011;38286;51.156;17.038;2023-05-07T11:48:48;3.42;;;3.13;;
52354;SDS011;38286;51.156;17.038;2023-05-07T11:51:18;4.40;;;3.47;;
52354;SDS011;38286;51.156;17.038;2023-05-07T11:53:48;4.22;;;3.40;;
52354;SDS011;38286;51.156;17.038;2023-05-07T11:56:15;6.38;;;3.83;;
52354;SDS011;38286;51.156;17.038;2023-05-07T11:58:42;3.67;;;3.15;;
52354;SDS011;38286;51.156;17.038;2023-05-07T12:01:10;4.25;;;3.85;;
52354;SDS011;38286;51.156;17.038;2023-05-07T12:03:37;4.70;;;3.28;;
52354;SDS011;38286;51.156;17.038;2023-05-07T12:06:08;5.07;;;3.80;;
52354;SDS011;38286;51.156;17.038;2023-05-07T12:08:38;4.35;;;3.50;;
52354;SDS011;38286;51.156;17.038;2023-05-07T12:14:00;4.55;;;3.83;;
52354;SDS011;38286;51.156;17.038;2023-05-07T12:16:26;5.07;;;3.63;;
52354;SDS011;38286;51.156;17.038;2023-05-07T12:18:53;4.18;;;3.58;;
52354;SDS011;38286;51.156;17.038;2023-05-07T12:21:20;5.43;;;3.92;;
52354;SDS011;38286;51.156;17.038;2023-05-07T12:23:47;4.97;;;3.50;;
52354;SDS011;38286;51.156;17.038;2023-05-07T12:26:13;4.22;;;3.53;;
52354;SDS011;38286;51.156;17.038;2023-05-07T12:28:39;5.63;;;3.70;;
52354;SDS011;38286;51.156;17.038;2023-05-07T12:31:05;5.45;;;3.35;;
52354;SDS011;38286;51.156;17.038;2023-05-07T12:33:32;4.93;;;3.92;;
52354;SDS011;38286;51.156;17.038;2023-05-07T12:36:00;6.28;;;3.95;;
52354;SDS011;38286;51.156;17.038;2023-05-07T12:38:32;4.78;;;4.00;;
52354;SDS011;38286;51.156;17.038;2023-05-07T12:41:02;5.03;;;4.25;;
52354;SDS011;38286;51.156;17.038;2023-05-07T12:43:28;4.82;;;3.60;;
52354;SDS011;38286;51.156;17.038;2023-05-07T12:45:56;6.05;;;4.20;;
52354;SDS011;38286;51.156;17.038;2023-05-07T12:48:23;5.40;;;4.82;;
52354;SDS011;38286;51.156;17.038;2023-05-07T12:50:59;6.60;;;4.28;;
52354;SDS011;38286;51.156;17.038;2023-05-07T12:53:26;5.82;;;4.32;;
52354;SDS011;38286;51.156;17.038;2023-05-07T12:55:53;5.55;;;4.80;;
52354;SDS011;38286;51.156;17.038;2023-05-07T12:58:27;6.00;;;4.00;;
52354;SDS011;38286;51.156;17.038;2023-05-07T13:00:54;5.40;;;4.22;;
52354;SDS011;38286;51.156;17.038;2023-05-07T13:03:30;5.72;;;4.22;;
52354;SDS011;38286;51.156;17.038;2023-05-07T13:05:58;5.30;;;4.47;;
52354;SDS011;38286;51.156;17.038;2023-05-07T13:08:26;6.80;;;4.90;;
52354;SDS011;38286;51.156;17.038;2023-05-07T13:10:53;6.38;;;5.07;;
52354;SDS011;38286;51.156;17.038;2023-05-07T13:13:20;5.65;;;4.88;;
52354;SDS011;38286;51.156;17.038;2023-05-07T13:15:46;6.22;;;4.50;;
52354;SDS011;38286;51.156;17.038;2023-05-07T13:18:13;7.53;;;4.32;;
52354;SDS011;38286;51.156;17.038;2023-05-07T13:20:39;6.38;;;4.88;;
52354;SDS011;38286;51.156;17.038;2023-05-07T13:23:05;5.50;;;4.70;;
52354;SDS011;38286;51.156;17.038;2023-05-07T13:25:31;5.25;;;4.75;;
52354;SDS011;38286;51.156;17.038;2023-05-07T13:27:57;6.13;;;4.93;;
52354;SDS011;38286;51.156;17.038;2023-05-07T13:30:23;6.20;;;4.80;;
52354;SDS011;38286;51.156;17.038;2023-05-07T13:32:49;5.75;;;5.13;;
52354;SDS011;38286;51.156;17.038;2023-05-07T13:35:16;5.30;;;4.80;;
52354;SDS011;38286;51.156;17.038;2023-05-07T13:37:42;5.50;;;4.65;;
52354;SDS011;38286;51.156;17.038;2023-05-07T13:40:08;6.63;;;4.35;;
52354;SDS011;38286;51.156;17.038;2023-05-07T13:42:34;4.70;;;4.10;;
52354;SDS011;38286;51.156;17.038;2023-05-07T13:45:00;4.97;;;4.15;;
52354;SDS011;38286;51.156;17.038;2023-05-07T13:47:29;7.40;;;4.38;;
52354;SDS011;38286;51.156;17.038;2023-05-07T13:49:55;6.47;;;4.10;;
52354;SDS011;38286;51.156;17.038;2023-05-07T13:52:21;5.18;;;4.10;;
52354;SDS011;38286;51.156;17.038;2023-05-07T13:54:47;5.50;;;4.13;;
52354;SDS011;38286;51.156;17.038;2023-05-07T13:57:13;4.75;;;4.05;;
52354;SDS011;38286;51.156;17.038;2023-05-07T13:59:40;5.07;;;3.53;;
52354;SDS011;38286;51.156;17.038;2023-05-07T14:02:06;5.32;;;3.25;;
52354;SDS011;38286;51.156;17.038;2023-05-07T14:04:32;4.50;;;3.40;;
52354;SDS011;38286;51.156;17.038;2023-05-07T14:06:58;3.53;;;3.22;;
52354;SDS011;38286;51.156;17.038;2023-05-07T14:09:24;4.32;;;3.67;;
52354;SDS011;38286;51.156;17.038;2023-05-07T14:11:49;3.67;;;3.33;;
52354;SDS011;38286;51.156;17.038;2023-05-07T14:14:17;6.05;;;3.45;;
52354;SDS011;38286;51.156;17.038;2023-05-07T14:16:43;4.90;;;3.50;;
52354;SDS011;38286;51.156;17.038;2023-05-07T14:19:11;5.90;;;3.53;;
52354;SDS011;38286;51.156;17.038;2023-05-07T14:21:37;4.00;;;3.60;;
52354;SDS011;38286;51.156;17.038;2023-05-07T14:24:03;4.95;;;3.80;;
52354;SDS011;38286;51.156;17.038;2023-05-07T14:26:31;4.15;;;3.72;;
52354;SDS011;38286;51.156;17.038;2023-05-07T14:28:57;5.45;;;3.95;;
52354;SDS011;38286;51.156;17.038;2023-05-07T14:31:23;4.70;;;3.78;;
52354;SDS011;38286;51.156;17.038;2023-05-07T14:33:50;4.47;;;3.75;;
52354;SDS011;38286;51.156;17.038;2023-05-07T14:36:17;4.07;;;3.42;;
52354;SDS011;38286;51.156;17.038;2023-05-07T14:38:45;4.82;;;3.80;;
52354;SDS011;38286;51.156;17.038;2023-05-07T14:41:12;5.90;;;4.28;;
52354;SDS011;38286;51.156;17.038;2023-05-07T14:43:38;5.05;;;4.03;;